Terminal Aerodrome Forecast
Issued by NWS

Home | Current Version | Previous Version | Text Only | Print | Product List | Glossary Off
Versions: 1 2 3 4 5 6 7 8 9 10 11 12 13 14 15

000
FTUS45 KGGW 131731 AAB
TAFSDY
TAF AMD
KSDY 131731Z 1318/1418 12010KT P6SM SCT030
     FM132300 11010KT P6SM FEW130
     FM140800 12006KT P6SM FEW250
     FM141500 14007KT P6SM VCSH BKN090=

USA.gov is the U.S. government's official web portal to all federal, state and local government web resources and services.